createdAt,value
2023-03-16T00:02:16.260Z,100906.00
2023-03-16T00:05:00.106Z,100892.78
2023-03-16T00:15:10.742Z,100907.75
2023-03-16T00:17:38.484Z,100923.53
2023-03-16T00:20:07.145Z,100912.09
2023-03-16T00:22:35.361Z,100927.03
2023-03-16T00:25:04.495Z,100932.28
2023-03-16T00:27:32.255Z,100930.53
2023-03-16T00:30:00.183Z,100932.28
2023-03-16T00:32:32.313Z,100930.53
2023-03-16T00:35:03.961Z,100925.25
2023-03-16T00:37:36.931Z,100919.97
2023-03-16T00:40:07.729Z,100920.84
2023-03-16T00:42:36.094Z,100923.53
2023-03-16T00:45:05.867Z,100927.00
2023-03-16T00:47:36.003Z,100923.53
2023-03-16T00:50:04.268Z,100915.63
2023-03-16T00:52:32.505Z,100917.38
2023-03-16T00:55:00.239Z,100916.50
2023-03-16T00:57:30.178Z,100914.75
2023-03-16T00:59:59.281Z,100918.28
2023-03-16T01:02:27.766Z,100908.59
2023-03-16T01:04:55.558Z,100902.47
2023-03-16T01:07:23.499Z,100910.44
2023-03-16T01:09:51.944Z,100899.03
2023-03-16T01:12:20.559Z,100899.88
2023-03-16T01:14:48.680Z,100899.00
2023-03-16T01:17:18.301Z,100905.19
2023-03-16T01:19:46.708Z,100899.06
2023-03-16T01:22:15.543Z,100886.72
2023-03-16T01:24:47.404Z,100883.25
2023-03-16T01:27:15.486Z,100884.13
2023-03-16T01:29:44.400Z,100894.69
2023-03-16T01:32:13.256Z,100885.91
2023-03-16T01:34:41.838Z,100882.38
2023-03-16T01:37:11.349Z,100877.97
2023-03-16T01:40:00.923Z,100868.31
2023-03-16T01:42:28.879Z,100870.94
2023-03-16T01:45:05.671Z,100857.75
2023-03-16T01:47:38.805Z,100867.44
2023-03-16T01:50:11.163Z,100863.91
2023-03-16T01:52:42.225Z,100873.59
2023-03-16T01:55:15.615Z,100876.25
2023-03-16T01:57:46.656Z,100868.38
2023-03-16T02:00:31.532Z,100871.00
2023-03-16T02:03:19.810Z,100869.22
2023-03-16T02:06:12.924Z,100864.84
2023-03-16T02:08:47.714Z,100867.47
2023-03-16T02:11:18.103Z,100855.22
2023-03-16T02:14:07.847Z,100864.00
2023-03-16T02:16:35.776Z,100852.59
2023-03-16T02:19:06.707Z,100847.34
2023-03-16T02:21:47.380Z,100852.56
2023-03-16T02:24:16.195Z,100843.03
2023-03-16T02:26:58.435Z,100840.38
2023-03-16T02:30:12.787Z,100844.69
2023-03-16T02:32:54.593Z,100833.28
2023-03-16T02:35:23.689Z,100839.44
2023-03-16T02:37:52.680Z,100831.53
2023-03-16T02:40:25.958Z,100824.50
2023-03-16T02:43:06.507Z,100834.16
2023-03-16T02:45:51.204Z,100843.81
2023-03-16T02:48:42.823Z,100836.81
2023-03-16T02:51:11.535Z,100825.41
2023-03-16T02:53:39.357Z,100825.38
2023-03-16T02:56:07.926Z,100814.81
2023-03-16T02:58:37.844Z,100819.22
2023-03-16T03:01:11.435Z,100817.44
2023-03-16T03:03:40.341Z,100813.06
2023-03-16T03:06:08.085Z,100814.84
2023-03-16T03:08:37.904Z,100818.31
2023-03-16T03:11:06.145Z,100828.88
2023-03-16T03:13:34.573Z,100813.97
2023-03-16T03:16:02.403Z,100825.34
2023-03-16T03:18:30.627Z,100820.09
2023-03-16T03:20:58.684Z,100811.28
2023-03-16T03:23:26.506Z,100809.56
2023-03-16T03:25:59.072Z,100789.31
2023-03-16T03:28:34.208Z,100792.00
2023-03-16T03:31:02.035Z,100803.41
2023-03-16T03:33:30.459Z,100803.44
2023-03-16T03:35:59.925Z,100799.03
2023-03-16T03:38:31.592Z,100789.38
2023-03-16T03:41:00.497Z,100792.88
2023-03-16T03:43:32.158Z,100789.38
2023-03-16T03:46:02.049Z,100801.69
2023-03-16T03:48:32.244Z,100802.56
2023-03-16T03:51:00.421Z,100799.03
2023-03-16T03:53:45.525Z,100788.50
2023-03-16T03:56:13.231Z,100796.38
2023-03-16T03:58:40.938Z,100781.44
2023-03-16T04:01:08.972Z,100780.63
2023-03-16T04:03:37.118Z,100784.09
2023-03-16T04:06:09.957Z,100783.22
2023-03-16T04:08:38.014Z,100773.56
2023-03-16T04:11:09.900Z,100779.72
2023-03-16T04:13:37.748Z,100786.72
2023-03-16T04:16:06.407Z,100778.81
2023-03-16T04:18:42.335Z,100784.97
2023-03-16T04:21:16.733Z,100774.41
2023-03-16T04:23:50.355Z,100778.81
2023-03-16T04:26:18.487Z,100772.63
2023-03-16T04:28:48.835Z,100777.03
2023-03-16T04:31:19.229Z,100777.88
2023-03-16T04:33:49.144Z,100778.78
2023-03-16T04:36:17.270Z,100783.19
2023-03-16T04:38:45.720Z,100773.47
2023-03-16T04:41:14.009Z,100766.50
2023-03-16T04:43:50.683Z,100772.63
2023-03-16T04:46:21.838Z,100783.19
2023-03-16T04:48:50.161Z,100774.41
2023-03-16T04:51:18.865Z,100779.69
2023-03-16T04:53:58.958Z,100770.03
2023-03-16T04:56:34.646Z,100784.13
2023-03-16T04:59:06.816Z,100764.78
2023-03-16T05:01:44.449Z,100768.31
2023-03-16T05:04:19.122Z,100760.41
2023-03-16T05:06:48.334Z,100767.44
2023-03-16T05:09:17.720Z,100774.47
2023-03-16T05:11:45.526Z,100762.16
2023-03-16T05:14:13.575Z,100773.59
2023-03-16T05:16:55.100Z,100763.06
2023-03-16T05:19:23.636Z,100750.81
2023-03-16T05:21:51.580Z,100756.97
2023-03-16T05:24:19.661Z,100748.19
2023-03-16T05:26:47.860Z,100762.25
2023-03-16T05:29:17.769Z,100753.47
2023-03-16T05:31:47.725Z,100761.34
2023-03-16T05:34:18.469Z,100763.09
2023-03-16T05:36:46.391Z,100748.09
2023-03-16T05:39:18.411Z,100751.63
2023-03-16T05:41:49.093Z,100746.34
2023-03-16T05:44:26.969Z,100755.97
2023-03-16T05:47:22.477Z,100748.09
2023-03-16T05:49:55.863Z,100748.97
2023-03-16T05:52:32.045Z,100753.31
2023-03-16T05:55:05.922Z,100754.19
2023-03-16T05:57:35.829Z,100746.28
2023-03-16T06:00:14.691Z,100748.00
2023-03-16T06:02:51.456Z,100742.75
2023-03-16T06:05:25.218Z,100748.03
2023-03-16T06:07:55.304Z,100749.78
2023-03-16T06:10:26.431Z,100741.84
2023-03-16T06:12:58.111Z,100748.88
2023-03-16T06:15:30.383Z,100750.66
2023-03-16T06:18:00.916Z,100755.91
2023-03-16T06:20:29.315Z,100751.47
2023-03-16T06:22:58.207Z,100750.59
2023-03-16T06:25:25.952Z,100753.22
2023-03-16T06:27:54.419Z,100744.44
2023-03-16T06:30:26.965Z,100750.56
2023-03-16T06:32:56.515Z,100741.75
2023-03-16T06:35:27.383Z,100751.38
2023-03-16T06:38:09.954Z,100740.78
2023-03-16T06:40:55.469Z,100748.66
2023-03-16T06:43:24.447Z,100745.97
2023-03-16T06:45:53.844Z,100737.16
2023-03-16T06:48:22.821Z,100742.31
2023-03-16T06:50:50.645Z,100743.09
2023-03-16T06:53:25.305Z,100744.81
2023-03-16T06:55:54.452Z,100753.53
2023-03-16T06:58:22.384Z,100748.19
2023-03-16T07:00:50.656Z,100755.19
2023-03-16T07:03:21.658Z,100745.44
2023-03-16T07:05:55.441Z,100739.25
2023-03-16T07:08:26.132Z,100742.72
2023-03-16T07:10:58.301Z,100749.72
2023-03-16T07:13:26.191Z,100744.50
2023-03-16T07:15:54.134Z,100748.84
2023-03-16T07:18:26.074Z,100761.13
2023-03-16T07:20:54.764Z,100760.19
2023-03-16T07:23:25.874Z,100764.56
2023-03-16T07:25:58.481Z,100761.84
2023-03-16T07:28:28.005Z,100764.50
2023-03-16T07:31:03.681Z,100758.31
2023-03-16T07:33:42.812Z,100756.47
2023-03-16T07:36:14.614Z,100758.16
2023-03-16T07:38:48.026Z,100758.91
2023-03-16T07:41:15.830Z,100758.81
2023-03-16T07:43:46.883Z,100758.72
2023-03-16T07:46:16.001Z,100765.66
2023-03-16T07:48:46.587Z,100763.78
2023-03-16T07:51:17.215Z,100762.78
2023-03-16T07:53:48.716Z,100762.66
2023-03-16T07:56:23.345Z,100762.53
2023-03-16T07:58:56.827Z,100763.28
2023-03-16T08:01:24.702Z,100754.38
2023-03-16T08:03:53.535Z,100764.75
2023-03-16T08:06:21.799Z,100755.81
2023-03-16T08:08:49.679Z,100754.81
2023-03-16T08:11:24.982Z,100741.44
2023-03-16T08:14:03.664Z,100742.16
2023-03-16T08:17:09.760Z,100742.91
2023-03-16T08:19:38.802Z,100721.69
2023-03-16T08:22:09.410Z,100746.34
2023-03-16T08:24:42.540Z,100741.00
2023-03-16T08:27:13.938Z,100748.88
2023-03-16T08:29:46.446Z,100736.38
2023-03-16T08:32:18.386Z,100733.69
2023-03-16T08:34:47.744Z,100751.09
2023-03-16T08:37:18.383Z,100739.53
2023-03-16T08:39:47.905Z,100739.41
2023-03-16T08:42:19.787Z,100740.91
2023-03-16T08:44:57.255Z,100738.13
2023-03-16T08:47:26.376Z,100726.56
2023-03-16T08:49:55.333Z,100731.63
2023-03-16T08:52:23.647Z,100730.59
2023-03-16T08:55:03.080Z,100718.00
2023-03-16T08:57:35.197Z,100723.88
2023-03-16T09:00:12.608Z,100716.59
2023-03-16T09:02:43.284Z,100706.63
2023-03-16T09:05:14.873Z,100716.97
2023-03-16T09:07:44.450Z,100716.88
2023-03-16T09:10:16.045Z,100714.09
2023-03-16T09:12:45.948Z,100709.44
2023-03-16T09:15:14.003Z,100717.22
2023-03-16T09:17:44.928Z,100700.25
2023-03-16T09:20:26.968Z,100701.91
2023-03-16T09:22:59.172Z,100699.13
2023-03-16T09:25:27.572Z,100699.69
2023-03-16T09:27:55.669Z,100690.56
2023-03-16T09:30:29.772Z,100693.72
2023-03-16T09:32:59.592Z,100689.94
2023-03-16T09:35:27.901Z,100696.81
2023-03-16T09:38:06.190Z,100715.84
2023-03-16T09:40:37.019Z,100711.13
2023-03-16T09:43:43.424Z,100716.91
2023-03-16T09:46:29.987Z,100713.16
2023-03-16T09:48:59.672Z,100703.28
2023-03-16T09:51:52.406Z,100705.59
2023-03-16T09:54:54.051Z,100691.22
2023-03-16T09:57:36.169Z,100685.66
2023-03-16T10:00:30.832Z,100677.50
2023-03-16T10:03:23.280Z,100670.94
2023-03-16T10:06:04.170Z,100661.03
2023-03-16T10:09:04.226Z,100665.28
2023-03-16T10:11:53.546Z,100662.34
2023-03-16T10:14:49.431Z,100666.56
2023-03-16T10:17:37.085Z,100668.28
2023-03-16T10:20:14.860Z,100653.22
2023-03-16T10:22:48.256Z,100652.22
2023-03-16T10:25:23.740Z,100642.34
2023-03-16T10:27:53.010Z,100638.91
2023-03-16T10:30:36.608Z,100648.41
2023-03-16T10:33:31.521Z,100656.22
2023-03-16T10:36:25.470Z,100651.69
2023-03-16T10:39:05.369Z,100655.06
2023-03-16T10:41:43.846Z,100657.31
2023-03-16T10:44:16.389Z,100659.84
2023-03-16T10:47:00.881Z,100641.94
2023-03-16T10:49:36.161Z,100659.50
2023-03-16T10:52:20.232Z,100650.28
2023-03-16T10:55:01.424Z,100634.28
2023-03-16T10:57:35.378Z,100637.66
2023-03-16T11:00:12.961Z,100637.28
2023-03-16T11:02:40.839Z,100632.81
2023-03-16T11:05:33.650Z,100626.16
2023-03-16T11:08:21.970Z,100616.94
2023-03-16T11:11:02.595Z,100612.91
2023-03-16T11:13:37.813Z,100608.22
2023-03-16T11:16:27.969Z,100617.59
2023-03-16T11:19:04.819Z,100614.78
2023-03-16T11:22:15.079Z,100607.44
2023-03-16T11:25:09.110Z,100605.06
2023-03-16T11:28:04.188Z,100599.81
2023-03-16T11:30:46.404Z,100597.63
2023-03-16T11:33:15.508Z,100593.69
2023-03-16T11:36:04.041Z,100582.47
2023-03-16T11:39:00.143Z,100587.47
2023-03-16T11:41:57.960Z,100585.41
2023-03-16T11:44:57.327Z,100587.47
2023-03-16T11:48:16.399Z,100587.03
2023-03-16T11:51:06.270Z,100575.06
2023-03-16T11:54:00.245Z,100566.75
2023-03-16T11:56:42.833Z,100568.34
2023-03-16T12:00:04.451Z,100566.41
2023-03-16T12:02:56.266Z,100561.59
2023-03-16T12:05:57.631Z,100564.06
2023-03-16T12:09:04.305Z,100549.81
2023-03-16T12:11:56.607Z,100542.66
2023-03-16T12:14:36.848Z,100550.50
2023-03-16T12:17:14.842Z,100547.06
2023-03-16T12:20:13.848Z,100553.06
2023-03-16T12:22:54.400Z,100543.34
2023-03-16T12:25:47.553Z,100539.03
2023-03-16T12:28:27.777Z,100533.81
2023-03-16T12:31:33.195Z,100534.53
2023-03-16T12:34:26.329Z,100532.06
2023-03-16T12:37:33.004Z,100535.69
2023-03-16T12:40:31.491Z,100531.34
2023-03-16T12:43:31.534Z,100522.38
2023-03-16T12:46:20.272Z,100513.56
2023-03-16T12:48:53.934Z,100522.38
2023-03-16T12:51:38.676Z,100521.38
2023-03-16T12:54:18.795Z,100510.59
2023-03-16T12:56:51.132Z,100504.38
2023-03-16T12:59:30.967Z,100501.41
2023-03-16T13:01:59.612Z,100490.78
2023-03-16T13:04:43.743Z,100489.78
2023-03-16T13:07:29.672Z,100490.50
2023-03-16T13:10:10.817Z,100478.13
2023-03-16T13:12:41.803Z,100475.56
2023-03-16T13:15:20.347Z,100480.28
2023-03-16T13:18:07.412Z,100471.53
2023-03-16T13:20:48.244Z,100474.72
2023-03-16T13:23:22.166Z,100472.13
2023-03-16T13:26:47.647Z,100466.78
2023-03-16T13:29:26.289Z,100463.22
2023-03-16T13:32:02.788Z,100464.00
2023-03-16T13:34:38.155Z,100454.94
2023-03-16T13:37:16.694Z,100449.47
2023-03-16T13:39:54.930Z,100452.00
2023-03-16T13:42:25.398Z,100445.84
2023-03-16T13:44:58.332Z,100446.88
2023-03-16T13:47:27.781Z,100450.75
2023-03-16T13:49:58.992Z,100433.59
2023-03-16T13:52:34.359Z,100428.13
2023-03-16T13:55:18.535Z,100426.84
2023-03-16T13:57:49.783Z,100418.09
2023-03-16T14:00:18.821Z,100421.47
2023-03-16T14:02:52.974Z,100406.13
2023-03-16T14:05:30.307Z,100408.41
2023-03-16T14:08:02.064Z,100398.50
2023-03-16T14:10:35.319Z,100399.34
2023-03-16T14:13:29.648Z,100393.69
2023-03-16T14:16:11.121Z,100381.09
2023-03-16T14:18:46.003Z,100393.91
2023-03-16T14:21:22.250Z,100389.09
2023-03-16T14:24:02.080Z,100379.13
2023-03-16T14:26:47.767Z,100374.56
2023-03-16T14:29:25.861Z,100373.38
2023-03-16T14:31:56.511Z,100384.88
2023-03-16T14:34:41.345Z,100378.50
2023-03-16T14:37:20.234Z,100371.31
2023-03-16T14:40:02.586Z,100370.97
2023-03-16T14:42:31.833Z,100364.75
2023-03-16T14:45:06.831Z,100369.88
2023-03-16T14:47:42.595Z,100368.13
2023-03-16T14:50:25.442Z,100370.47
2023-03-16T14:52:55.961Z,100361.47
2023-03-16T14:55:24.867Z,100367.69
2023-03-16T14:57:53.329Z,100369.25
2023-03-16T15:00:22.971Z,100372.66
2023-03-16T15:03:15.540Z,100365.16
2023-03-16T15:05:48.461Z,100368.78
2023-03-16T15:08:32.115Z,100355.41
2023-03-16T15:11:06.036Z,100356.19
2023-03-16T15:13:39.943Z,100362.41
2023-03-16T15:16:11.997Z,100371.38
2023-03-16T15:18:40.719Z,100358.28
2023-03-16T15:21:18.164Z,100355.72
2023-03-16T15:23:46.908Z,100347.81
2023-03-16T15:26:25.188Z,100360.06
2023-03-16T15:28:57.238Z,100357.38
2023-03-16T15:31:28.439Z,100343.31
2023-03-16T15:33:57.105Z,100340.81
2023-03-16T15:36:24.974Z,100351.09
2023-03-16T15:38:55.230Z,100351.81
2023-03-16T15:41:26.969Z,100346.25
2023-03-16T15:44:00.961Z,100355.34
2023-03-16T15:46:28.915Z,100343.88
2023-03-16T15:48:59.070Z,100345.50
2023-03-16T15:51:30.208Z,100336.34
2023-03-16T15:54:02.317Z,100339.97
2023-03-16T15:56:41.180Z,100330.28
2023-03-16T15:59:36.537Z,100332.34
2023-03-16T16:02:33.476Z,100319.19
2023-03-16T16:05:02.212Z,100311.75
2023-03-16T16:07:31.681Z,100316.41
2023-03-16T16:09:59.398Z,100311.13
2023-03-16T16:12:30.371Z,100311.13
2023-03-16T16:14:58.401Z,100302.34
2023-03-16T16:17:43.828Z,100302.41
2023-03-16T16:20:28.849Z,100302.34
2023-03-16T16:23:03.058Z,100304.31
2023-03-16T16:25:41.337Z,100294.53
2023-03-16T16:28:20.756Z,100300.91
2023-03-16T16:30:49.447Z,100303.84
2023-03-16T16:33:35.670Z,100303.69
2023-03-16T16:36:14.389Z,100296.78
2023-03-16T16:38:42.171Z,100290.28
2023-03-16T16:41:35.505Z,100306.16
2023-03-16T16:44:08.345Z,100302.97
2023-03-16T16:46:41.709Z,100293.44
2023-03-16T16:49:24.562Z,100294.44
2023-03-16T16:51:53.607Z,100302.81
2023-03-16T16:54:24.414Z,100307.31
2023-03-16T16:56:57.543Z,100299.53
2023-03-16T16:59:32.974Z,100295.28
2023-03-16T17:02:21.304Z,100296.56
2023-03-16T17:04:50.910Z,100289.03
2023-03-16T17:07:20.473Z,100295.28
2023-03-16T17:09:49.846Z,100284.72
2023-03-16T17:12:22.764Z,100302.50
2023-03-16T17:14:51.306Z,100293.13
2023-03-16T17:17:19.328Z,100296.69
2023-03-16T17:19:48.494Z,100283.84
2023-03-16T17:22:24.637Z,100295.34
2023-03-16T17:24:54.009Z,100297.41
2023-03-16T17:27:31.429Z,100295.72
2023-03-16T17:29:59.382Z,100307.53
2023-03-16T17:32:27.187Z,100299.81
2023-03-16T17:34:55.149Z,100300.00
2023-03-16T17:37:25.712Z,100294.91
2023-03-16T17:39:56.222Z,100280.22
2023-03-16T17:42:26.438Z,100285.84
2023-03-16T17:44:54.550Z,100286.81
2023-03-16T17:47:29.076Z,100292.16
2023-03-16T17:49:57.171Z,100294.28
2023-03-16T17:52:29.193Z,100292.59
2023-03-16T17:54:57.244Z,100294.63
2023-03-16T17:57:33.798Z,100285.84
2023-03-16T18:00:08.868Z,100278.03
2023-03-16T18:02:50.599Z,100282.56
2023-03-16T18:05:34.393Z,100277.47
2023-03-16T18:08:27.572Z,100273.22
2023-03-16T18:11:02.965Z,100257.56
2023-03-16T18:13:38.121Z,100262.81
2023-03-16T18:16:07.577Z,100268.28
2023-03-16T18:18:41.573Z,100263.94
2023-03-16T18:21:23.155Z,100263.91
2023-03-16T18:23:53.722Z,100271.97
2023-03-16T18:26:23.691Z,100272.03
2023-03-16T18:28:53.532Z,100273.94
2023-03-16T18:31:25.772Z,100276.44
2023-03-16T18:34:03.456Z,100272.81
2023-03-16T18:36:36.736Z,100272.91
2023-03-16T18:39:07.042Z,100272.13
2023-03-16T18:41:36.048Z,100258.91
2023-03-16T18:44:16.827Z,100264.16
2023-03-16T18:46:46.482Z,100260.06
2023-03-16T18:49:33.161Z,100265.31
2023-03-16T18:52:01.302Z,100258.47
2023-03-16T18:54:35.110Z,100263.81
2023-03-16T18:57:05.784Z,100248.88
2023-03-16T18:59:34.660Z,100237.47
2023-03-16T19:02:03.009Z,100237.47
2023-03-16T19:04:32.772Z,100250.03
2023-03-16T19:07:00.759Z,100250.25
2023-03-16T19:09:31.883Z,100251.19
2023-03-16T19:11:59.858Z,100241.72
2023-03-16T19:14:34.082Z,100250.53
2023-03-16T19:17:01.906Z,100239.28
2023-03-16T19:19:29.618Z,100239.56
2023-03-16T19:22:16.020Z,100238.56
2023-03-16T19:24:46.556Z,100244.25
2023-03-16T19:27:36.903Z,100253.31
2023-03-16T19:30:15.359Z,100246.34
2023-03-16T19:32:43.471Z,100240.22
2023-03-16T19:35:17.277Z,100251.56
2023-03-16T19:37:46.496Z,100265.88
2023-03-16T19:40:18.936Z,100256.16
2023-03-16T19:42:47.735Z,100258.91
2023-03-16T19:45:18.915Z,100258.91
2023-03-16T19:47:46.860Z,100256.50
2023-03-16T19:50:19.284Z,100254.63
2023-03-16T19:52:48.235Z,100246.03
2023-03-16T19:55:28.137Z,100238.88
2023-03-16T19:58:07.503Z,100232.09
2023-03-16T20:00:36.031Z,100235.75
2023-03-16T20:03:04.050Z,100238.31
2023-03-16T20:05:33.639Z,100246.31
2023-03-16T20:08:02.595Z,100234.78
2023-03-16T20:10:32.549Z,100232.22
2023-03-16T20:13:02.454Z,100235.06
2023-03-16T20:15:33.414Z,100235.25
2023-03-16T20:18:01.906Z,100232.78
2023-03-16T20:20:35.849Z,100226.59
2023-03-16T20:23:18.955Z,100215.19
2023-03-16T20:25:47.650Z,100216.25
2023-03-16T20:28:24.761Z,100207.38
2023-03-16T20:30:53.729Z,100217.19
2023-03-16T20:33:24.636Z,100216.25
2023-03-16T20:35:59.360Z,100200.66
2023-03-16T20:38:28.640Z,100212.22
2023-03-16T20:40:56.603Z,100214.03
2023-03-16T20:43:32.078Z,100218.41
2023-03-16T20:46:03.708Z,100216.66
2023-03-16T20:48:32.163Z,100213.16
2023-03-16T20:51:01.498Z,100214.25
2023-03-16T20:53:29.441Z,100206.31
2023-03-16T20:55:57.288Z,100207.25
2023-03-16T20:58:28.116Z,100199.38
2023-03-16T21:01:00.984Z,100200.59
2023-03-16T21:03:30.928Z,100199.69
2023-03-16T21:06:00.226Z,100208.84
2023-03-16T21:08:29.134Z,100214.84
2023-03-16T21:10:59.724Z,100218.34
2023-03-16T21:13:33.363Z,100212.25
2023-03-16T21:16:03.845Z,100211.25
2023-03-16T21:18:32.951Z,100214.78
2023-03-16T21:21:00.966Z,100216.59
2023-03-16T21:23:28.801Z,100210.59
2023-03-16T21:26:02.886Z,100216.59
2023-03-16T21:28:34.500Z,100213.19
2023-03-16T21:31:03.414Z,100209.50
2023-03-16T21:33:34.931Z,100200.16
2023-03-16T21:36:07.159Z,100206.38
2023-03-16T21:38:35.352Z,100209.84
2023-03-16T21:41:03.121Z,100205.47
2023-03-16T21:43:31.706Z,100201.09
2023-03-16T21:46:00.128Z,100200.16
2023-03-16T21:48:39.428Z,100203.78
2023-03-16T21:51:19.870Z,100205.66
2023-03-16T21:53:49.703Z,100189.91
2023-03-16T21:56:24.682Z,100200.38
2023-03-16T21:58:54.307Z,100190.66
2023-03-16T22:01:32.262Z,100194.25
2023-03-16T22:04:14.969Z,100188.06
2023-03-16T22:06:45.399Z,100198.72
2023-03-16T22:09:20.192Z,100189.78
2023-03-16T22:11:48.327Z,100181.03
2023-03-16T22:14:16.102Z,100184.66
2023-03-16T22:16:44.066Z,100183.72
2023-03-16T22:19:15.843Z,100181.00
2023-03-16T22:21:45.071Z,100171.44
2023-03-16T22:24:30.025Z,100172.19
2023-03-16T22:26:57.968Z,100161.00
2023-03-16T22:29:31.214Z,100163.53
2023-03-16T22:32:07.286Z,100159.25
2023-03-16T22:35:02.976Z,100163.72
2023-03-16T22:37:31.107Z,100162.84
2023-03-16T22:40:01.585Z,100162.00
2023-03-16T22:42:37.187Z,100143.41
2023-03-16T22:45:23.079Z,100159.44
2023-03-16T22:47:51.841Z,100154.28
2023-03-16T22:50:21.882Z,100142.78
2023-03-16T22:52:53.910Z,100142.69
2023-03-16T22:55:31.619Z,100144.56
2023-03-16T22:58:12.051Z,100142.00
2023-03-16T23:00:40.050Z,100147.34
2023-03-16T23:03:18.614Z,100142.00
2023-03-16T23:05:47.000Z,100149.22
2023-03-16T23:08:19.827Z,100141.25
2023-03-16T23:10:48.277Z,100144.09
2023-03-16T23:13:24.366Z,100137.00
2023-03-16T23:15:53.663Z,100136.22
2023-03-16T23:18:26.776Z,100136.28
2023-03-16T23:20:54.533Z,100131.94
2023-03-16T23:23:22.471Z,100132.09
2023-03-16T23:25:51.658Z,100126.69
2023-03-16T23:28:24.352Z,100132.13
2023-03-16T23:30:52.539Z,100139.25
2023-03-16T23:33:20.311Z,100135.84
2023-03-16T23:35:47.990Z,100124.41
2023-03-16T23:38:16.080Z,100120.06
2023-03-16T23:40:44.012Z,100108.69
2023-03-16T23:43:11.951Z,100101.75
2023-03-16T23:45:45.725Z,100094.72
2023-03-16T23:48:18.881Z,100100.06
2023-03-16T23:50:52.022Z,100089.56
2023-03-16T23:53:20.619Z,100094.16
2023-03-16T23:55:48.958Z,100099.56
2023-03-16T23:58:17.254Z,100102.25
